Glendive, MT

2:24 PM MDT on May 23, 2017 (GMT -0600)
Dawson Community

Weather History for KGDV - November, 2011

Change the Weather History Date:

Wednesday, November 23, 2011

  Actual Average Record
Temperature  
Mean Temperature 44 °F -  
Max Temperature 57 °F 35 °F 57 °F (2005)
Min Temperature 30 °F 18 °F -11 °F (2010)
Degree Days  
Heating Degree Days 22    
Moisture  
Dew Point 27 °F    
Average Humidity 57    
Maximum Humidity 80    
Minimum Humidity 33    
Precipitation  
Precipitation 0.00 in - - ()
Sea Level Pressure  
Sea Level Pressure 29.79 in    
Wind  
Wind Speed 10 mph (South)    
Max Wind Speed 16 mph    
Max Gust Speed 18 mph    
Visibility 10 miles    
Events      
Averages and records for this station are not official NWS values.
T = Trace of Precipitation, MM = Missing Value Source: NWS Daily Summary

Daily Weather History Graph

Daily Weather History Graph

Search for Another Location

Airport or City:

Trip Planner

Search our weather history database for the weather conditions in past years. The results will help you decide how hot, cold, wet, or windy it might be!

Date:

Astronomy

Nov. 23, 2011 Rise Set
Actual Time 7:14 AM MST 4:16 PM MST
Civil Twilight 6:40 AM MST 4:50 PM MST
Nautical Twilight 6:02 AM MST 5:28 PM MST
Astronomical Twilight 5:25 AM MST 6:04 PM MST
Moon 5:18 AM MST 3:01 PM MST
Length of Visible Light 10h 10m
Length of Day
9h 02m
Waning Crescent, 3% of the Moon is Illuminated
Nov 23
Waning Crescent
Nov 24
New
Dec 2
First Quarter
Dec 10
Full
Dec 17
Last Quarter

Hourly Weather History & Observations

Time (MST) Temp. Windchill Dew Point Humidity Pressure Visibility Wind Dir Wind Speed Gust Speed Precip Events Conditions
12:15 AM 39.2 °F 33.0 °F 26.6 °F 61% 29.89 in 10.0 mi SSW 9.2 mph - N/A   Clear
12:55 AM 39.2 °F 34.2 °F 24.8 °F 56% 29.88 in 10.0 mi South 6.9 mph - N/A   Clear
1:15 AM 37.4 °F 31.4 °F 26.6 °F 65% 29.87 in 10.0 mi SE 8.1 mph - N/A   Clear
1:35 AM 33.8 °F 26.4 °F 24.8 °F 70% 29.87 in 10.0 mi SSE 9.2 mph - N/A   Clear
1:55 AM 33.8 °F 26.4 °F 24.8 °F 70% 29.88 in 10.0 mi SSE 9.2 mph - N/A   Clear
2:15 AM 33.8 °F 27.0 °F 24.8 °F 70% 29.88 in 10.0 mi SSW 8.1 mph - N/A   Clear
2:35 AM 35.6 °F 29.9 °F 24.8 °F 65% 29.88 in 10.0 mi South 6.9 mph - N/A   Clear
3:15 AM 30.2 °F 21.9 °F 21.2 °F 69% 29.88 in 10.0 mi South 9.2 mph - N/A   Clear
3:55 AM 30.2 °F 19.8 °F 24.8 °F 80% 29.87 in 10.0 mi South 13.8 mph - N/A   Clear
4:15 AM 30.2 °F 21.3 °F 24.8 °F 80% 29.87 in 10.0 mi South 10.4 mph - N/A   Clear
4:35 AM 30.2 °F 21.3 °F 24.8 °F 80% 29.87 in 10.0 mi South 10.4 mph - N/A   Clear
4:55 AM 30.2 °F 20.2 °F 24.8 °F 80% 29.87 in 10.0 mi South 12.7 mph - N/A   Clear
5:15 AM 33.8 °F 24.8 °F 24.8 °F 70% 29.87 in 10.0 mi South 12.7 mph - N/A   Clear
5:35 AM 33.8 °F 25.8 °F 24.8 °F 70% 29.86 in 10.0 mi South 10.4 mph - N/A   Clear
5:55 AM 33.8 °F 27.0 °F 24.8 °F 70% 29.86 in 10.0 mi South 8.1 mph - N/A   Clear
6:35 AM 33.8 °F 27.7 °F 24.8 °F 70% 29.85 in 10.0 mi South 6.9 mph - N/A   Clear
6:55 AM 33.8 °F 25.3 °F 24.8 °F 70% 29.85 in 10.0 mi South 11.5 mph - N/A   Clear
7:15 AM 33.8 °F 25.8 °F 24.8 °F 70% 29.86 in 10.0 mi SSW 10.4 mph - N/A   Clear
7:55 AM 33.8 °F 26.4 °F 24.8 °F 70% 29.84 in 10.0 mi South 9.2 mph - N/A   Clear
8:15 AM 35.6 °F 29.9 °F 26.6 °F 70% 29.85 in 10.0 mi South 6.9 mph - N/A   Clear
8:35 AM 35.6 °F 29.2 °F 26.6 °F 70% 29.84 in 10.0 mi South 8.1 mph - N/A   Clear
8:56 AM 37.4 °F 31.4 °F 26.6 °F 65% 29.84 in 10.0 mi South 8.1 mph - N/A   Clear
9:35 AM 39.2 °F 32.5 °F 26.6 °F 61% 29.83 in 10.0 mi South 10.4 mph - N/A   Clear
9:55 AM 42.8 °F 38.0 °F 28.4 °F 57% 29.83 in 10.0 mi South 8.1 mph - N/A   Clear
10:15 AM 44.6 °F 39.2 °F 28.4 °F 53% 29.82 in 10.0 mi South 10.4 mph - N/A   Clear
10:35 AM 46.4 °F 40.7 °F 28.4 °F 50% 29.82 in 10.0 mi South 12.7 mph - N/A   Clear
10:55 AM 48.2 °F - 30.2 °F 50% 29.80 in 10.0 mi South 16.1 mph - N/A   Clear
11:15 AM 48.2 °F - 28.4 °F 46% 29.79 in 10.0 mi South 10.4 mph - N/A   Clear
11:35 AM 50.0 °F - 28.4 °F 43% 29.78 in 10.0 mi South 12.7 mph - N/A   Clear
12:15 PM 53.6 °F - 30.2 °F 41% 29.76 in 10.0 mi SSW 13.8 mph - N/A   Clear
12:36 PM 55.4 °F - 30.2 °F 38% 29.75 in 10.0 mi SSW 16.1 mph - N/A   Clear
1:35 PM 57.2 °F - 28.4 °F 33% 29.73 in 10.0 mi SSW 12.7 mph - N/A   Clear
1:55 PM 57.2 °F - 30.2 °F 36% 29.73 in 10.0 mi SSW 11.5 mph - N/A   Clear
2:15 PM 53.6 °F - 28.4 °F 38% 29.72 in 10.0 mi South 8.1 mph - N/A   Clear
2:35 PM 55.4 °F - 30.2 °F 38% 29.72 in 10.0 mi South 6.9 mph - N/A   Clear
2:55 PM 55.4 °F - 30.2 °F 38% 29.71 in 10.0 mi South 9.2 mph - N/A   Clear
3:15 PM 55.4 °F - 30.2 °F 38% 29.71 in 10.0 mi SSW 11.5 mph - N/A   Clear
3:55 PM 48.2 °F - 28.4 °F 46% 29.70 in 10.0 mi SSW 10.4 mph - N/A   Clear
4:15 PM 48.2 °F - 28.4 °F 46% 29.71 in 10.0 mi SSW 10.4 mph - N/A   Clear
4:35 PM 48.2 °F - 28.4 °F 46% 29.70 in 10.0 mi SSW 9.2 mph - N/A   Clear
4:55 PM 44.6 °F 39.2 °F 28.4 °F 53% 29.70 in 10.0 mi SSW 10.4 mph - N/A   Clear
5:35 PM 44.6 °F 38.4 °F 28.4 °F 53% 29.69 in 10.0 mi SSW 12.7 mph - N/A   Clear
5:55 PM 44.6 °F 38.4 °F 28.4 °F 53% 29.68 in 10.0 mi SSW 12.7 mph - N/A   Clear
6:15 PM 42.8 °F 36.2 °F 28.4 °F 57% 29.68 in 10.0 mi SSW 12.7 mph - N/A   Clear
6:35 PM 42.8 °F 37.5 °F 28.4 °F 57% 29.68 in 10.0 mi South 9.2 mph - N/A   Clear
6:55 PM 44.6 °F 39.7 °F 28.4 °F 53% 29.68 in 10.0 mi South 9.2 mph - N/A   Clear
7:15 PM 44.6 °F 39.7 °F 28.4 °F 53% 29.68 in 10.0 mi South 9.2 mph - N/A   Clear
7:35 PM 44.6 °F 39.7 °F 28.4 °F 53% 29.68 in 10.0 mi South 9.2 mph - N/A   Clear
7:55 PM 44.6 °F 39.2 °F 28.4 °F 53% 29.66 in 10.0 mi South 10.4 mph - N/A   Clear
8:15 PM 46.4 °F 41.1 °F 28.4 °F 50% 29.66 in 10.0 mi SSW 11.5 mph 18.4 mph N/A   Clear
8:55 PM 46.4 °F 42.4 °F 28.4 °F 50% 29.66 in 10.0 mi SW 8.1 mph - N/A   Clear
9:15 PM 42.8 °F 38.6 °F 26.6 °F 53% 29.66 in 10.0 mi South 6.9 mph - N/A   Clear
9:35 PM 42.8 °F 36.2 °F 26.6 °F 53% 29.66 in 10.0 mi SSW 12.7 mph - N/A   Clear
9:55 PM 44.6 °F 38.1 °F 28.4 °F 53% 29.65 in 10.0 mi SSW 13.8 mph - N/A   Clear
10:15 PM 42.8 °F 37.0 °F 26.6 °F 53% 29.66 in 10.0 mi SSW 10.4 mph - N/A   Clear
10:35 PM 39.2 °F 32.0 °F 26.6 °F 61% 29.66 in 10.0 mi South 11.5 mph - N/A   Clear
11:15 PM 41.0 °F 34.3 °F 26.6 °F 57% 29.66 in 10.0 mi SSW 11.5 mph - N/A   Clear
11:35 PM 39.2 °F 31.6 °F 26.6 °F 61% 29.64 in 10.0 mi SSW 12.7 mph - N/A   Clear
11:55 PM 39.2 °F 32.0 °F 24.8 °F 56% 29.64 in 10.0 mi SSW 11.5 mph - N/A   Clear